createdAt,value
2023-04-12T00:02:27.875Z,6.65
2023-04-12T00:05:14.036Z,6.65
2023-04-12T00:08:00.985Z,6.63
2023-04-12T00:10:46.336Z,6.60
2023-04-12T00:13:31.601Z,6.59
2023-04-12T00:16:17.203Z,6.58
2023-04-12T00:19:04.144Z,6.57
2023-04-12T00:21:52.434Z,6.53
2023-04-12T00:24:40.370Z,6.50
2023-04-12T00:27:25.965Z,6.50
2023-04-12T00:30:11.884Z,6.49
2023-04-12T00:32:58.499Z,6.47
2023-04-12T00:35:45.274Z,6.45
2023-04-12T00:38:33.763Z,6.41
2023-04-12T00:41:19.164Z,6.40
2023-04-12T00:44:05.693Z,6.37
2023-04-12T00:46:54.153Z,6.36
2023-04-12T00:49:39.265Z,6.36
2023-04-12T00:52:24.695Z,6.35
2023-04-12T00:55:17.473Z,6.26
2023-04-12T00:58:05.769Z,6.20
2023-04-12T01:00:57.863Z,6.18
2023-04-12T01:03:43.856Z,6.18
2023-04-12T01:07:03.691Z,6.21
2023-04-12T01:10:13.712Z,6.21
2023-04-12T01:13:11.719Z,6.23
2023-04-12T01:16:02.654Z,6.22
2023-04-12T01:18:51.540Z,6.21
2023-04-12T01:22:02.385Z,6.20
2023-04-12T01:24:57.509Z,6.18
2023-04-12T01:27:49.700Z,6.17
2023-04-12T01:30:38.458Z,6.16
2023-04-12T01:33:31.119Z,6.12
2023-04-12T01:36:20.820Z,6.03
2023-04-12T01:39:06.715Z,6.00
2023-04-12T01:41:51.850Z,5.92
2023-04-12T01:44:37.910Z,5.89
2023-04-12T01:47:24.846Z,5.80
2023-04-12T01:50:37.828Z,5.78
2023-04-12T01:53:31.894Z,5.80
2023-04-12T01:56:22.258Z,5.85
2023-04-12T01:59:09.575Z,5.87
2023-04-12T02:01:55.362Z,5.87
2023-04-12T02:04:42.852Z,5.90
2023-04-12T02:07:28.773Z,5.88
2023-04-12T02:10:15.263Z,5.85
2023-04-12T02:13:04.049Z,5.83
2023-04-12T02:15:49.599Z,5.81
2023-04-12T02:18:37.906Z,5.76
2023-04-12T02:21:24.731Z,5.70
2023-04-12T02:24:11.612Z,5.66
2023-04-12T02:26:58.994Z,5.63
2023-04-12T02:29:45.073Z,5.63
2023-04-12T02:32:30.911Z,5.61
2023-04-12T02:35:17.627Z,5.62
2023-04-12T02:38:08.085Z,5.61
2023-04-12T02:41:53.848Z,5.59
2023-04-12T02:44:39.236Z,5.59
2023-04-12T02:47:30.182Z,5.56
2023-04-12T02:50:17.581Z,5.52
2023-04-12T02:53:09.437Z,5.49
2023-04-12T02:55:55.000Z,5.49
2023-04-12T02:58:42.639Z,5.49
2023-04-12T03:01:32.092Z,5.46
2023-04-12T03:04:37.412Z,5.43
2023-04-12T03:07:23.079Z,5.41
2023-04-12T03:10:13.230Z,5.39
2023-04-12T03:13:04.986Z,5.35
2023-04-12T03:16:25.445Z,5.33
2023-04-12T03:19:19.994Z,5.30
2023-04-12T03:22:11.669Z,5.29
2023-04-12T03:25:01.473Z,5.25
2023-04-12T03:27:47.372Z,5.22
2023-04-12T03:30:35.746Z,5.17
2023-04-12T03:33:21.783Z,5.15
2023-04-12T03:36:09.791Z,5.14
2023-04-12T03:38:54.984Z,5.14
2023-04-12T03:41:40.711Z,5.15
2023-04-12T03:44:26.936Z,5.13
2023-04-12T03:47:14.674Z,5.11
2023-04-12T03:52:56.758Z,5.04
2023-04-12T03:55:47.685Z,4.96
2023-04-12T03:58:35.037Z,4.97
2023-04-12T04:01:21.132Z,4.96
2023-04-12T04:04:07.541Z,4.99
2023-04-12T04:06:53.295Z,5.01
2023-04-12T04:09:38.948Z,5.01
2023-04-12T04:12:24.687Z,5.02
2023-04-12T04:15:15.055Z,4.99
2023-04-12T04:18:01.054Z,5.01
2023-04-12T04:20:46.960Z,4.97
2023-04-12T04:23:43.219Z,4.92
2023-04-12T04:26:34.845Z,4.88
2023-04-12T04:29:29.155Z,4.91
2023-04-12T04:32:15.828Z,4.95
2023-04-12T04:35:03.973Z,4.93
2023-04-12T04:38:01.547Z,4.95
2023-04-12T04:40:53.193Z,5.02
2023-04-12T04:43:42.601Z,5.09
2023-04-12T04:46:30.301Z,5.10
2023-04-12T04:49:15.502Z,5.04
2023-04-12T04:52:01.116Z,5.03
2023-04-12T04:54:46.963Z,5.04
2023-04-12T04:57:32.340Z,5.06
2023-04-12T05:00:19.398Z,5.08
2023-04-12T05:03:12.215Z,5.14
2023-04-12T05:05:57.389Z,5.17
2023-04-12T05:08:42.596Z,5.19
2023-04-12T05:11:28.201Z,5.23
2023-04-12T05:14:13.445Z,5.32
2023-04-12T05:16:59.523Z,5.40
2023-04-12T05:19:45.379Z,5.47
2023-04-12T05:22:31.030Z,5.48
2023-04-12T05:25:16.772Z,5.55
2023-04-12T05:28:14.032Z,5.63
2023-04-12T05:31:00.082Z,5.68
2023-04-12T05:33:54.414Z,5.76
2023-04-12T05:36:44.511Z,5.84
2023-04-12T05:39:29.841Z,5.94
2023-04-12T05:42:15.692Z,6.01
2023-04-12T05:45:01.328Z,6.14
2023-04-12T05:47:46.377Z,6.25
2023-04-12T05:50:31.773Z,6.37
2023-04-12T05:53:17.201Z,6.46
2023-04-12T05:56:03.309Z,6.48
2023-04-12T05:58:49.088Z,6.46
2023-04-12T06:01:34.823Z,6.53
2023-04-12T06:04:20.903Z,6.55
2023-04-12T06:07:07.241Z,6.63
2023-04-12T06:09:52.368Z,6.71
2023-04-12T06:12:41.554Z,6.79
2023-04-12T06:15:27.267Z,6.77
2023-04-12T06:18:13.245Z,6.91
2023-04-12T06:20:58.663Z,7.08
2023-04-12T06:23:44.362Z,7.23
2023-04-12T06:26:38.996Z,7.36
2023-04-12T06:29:26.073Z,7.44
2023-04-12T06:32:11.651Z,7.65
2023-04-12T06:34:57.044Z,7.71
2023-04-12T06:37:42.565Z,7.85
2023-04-12T06:40:29.726Z,7.98
2023-04-12T06:43:43.325Z,8.07
2023-04-12T06:46:35.309Z,8.12
2023-04-12T06:49:20.377Z,8.20
2023-04-12T06:52:05.865Z,8.33
2023-04-12T06:54:51.014Z,8.51
2023-04-12T06:57:36.212Z,8.62
2023-04-12T07:00:21.948Z,8.70
2023-04-12T07:03:15.368Z,8.83
2023-04-12T07:06:13.821Z,8.88
2023-04-12T07:09:10.274Z,8.89
2023-04-12T07:11:59.512Z,9.01
2023-04-12T07:14:45.522Z,9.08
2023-04-12T07:17:31.164Z,9.14
2023-04-12T07:20:17.479Z,9.27
2023-04-12T07:23:03.335Z,9.41
2023-04-12T07:25:48.899Z,9.62
2023-04-12T07:28:36.285Z,9.88
2023-04-12T07:31:22.316Z,9.88
2023-04-12T07:34:08.843Z,9.98
2023-04-12T07:36:55.362Z,10.21
2023-04-12T07:39:40.917Z,10.29
2023-04-12T07:42:26.671Z,10.34
2023-04-12T07:45:12.344Z,10.36
2023-04-12T07:47:58.037Z,10.46
2023-04-12T07:50:43.899Z,10.61
2023-04-12T07:53:29.143Z,10.62
2023-04-12T07:56:15.273Z,10.83
2023-04-12T07:59:01.160Z,10.73
2023-04-12T08:01:46.668Z,10.71
2023-04-12T08:04:31.798Z,10.66
2023-04-12T08:07:16.935Z,10.94
2023-04-12T08:10:02.382Z,11.07
2023-04-12T08:12:47.987Z,10.98
2023-04-12T08:15:33.793Z,11.15
2023-04-12T08:18:19.403Z,11.29
2023-04-12T08:21:04.856Z,11.36
2023-04-12T08:23:51.040Z,11.36
2023-04-12T08:26:36.542Z,11.59
2023-04-12T08:29:21.838Z,11.56
2023-04-12T08:32:09.549Z,11.46
2023-04-12T08:34:55.429Z,11.66
2023-04-12T08:37:40.697Z,11.85
2023-04-12T08:40:26.404Z,11.91
2023-04-12T08:43:12.570Z,12.01
2023-04-12T08:45:59.315Z,11.85
2023-04-12T08:48:49.588Z,11.81
2023-04-12T08:51:36.955Z,11.82
2023-04-12T08:54:23.009Z,11.92
2023-04-12T08:57:10.587Z,11.90
2023-04-12T08:59:56.280Z,12.07
2023-04-12T09:02:46.299Z,12.13
2023-04-12T09:05:31.734Z,12.15
2023-04-12T09:08:17.497Z,12.19
2023-04-12T09:11:21.090Z,12.38
2023-04-12T09:14:25.946Z,12.66
2023-04-12T09:17:28.095Z,12.69
2023-04-12T09:20:16.507Z,12.62
2023-04-12T09:23:18.253Z,12.93
2023-04-12T09:26:04.356Z,12.82
2023-04-12T09:28:49.550Z,12.74
2023-04-12T09:31:34.795Z,12.84
2023-04-12T09:34:20.104Z,12.90
2023-04-12T09:37:16.579Z,12.87
2023-04-12T09:40:07.156Z,13.10
2023-04-12T09:42:54.229Z,13.22
2023-04-12T09:45:39.474Z,13.41
2023-04-12T09:48:27.060Z,13.41
2023-04-12T09:51:13.624Z,13.16
2023-04-12T09:54:01.364Z,13.27
2023-04-12T09:56:48.345Z,13.29
2023-04-12T09:59:37.341Z,13.37
2023-04-12T10:02:27.728Z,13.49
2023-04-12T10:05:16.212Z,13.50
2023-04-12T10:08:02.227Z,13.47
2023-04-12T10:10:48.870Z,13.50
2023-04-12T10:13:35.429Z,13.54
2023-04-12T10:16:21.960Z,13.61
2023-04-12T10:19:08.385Z,13.69
2023-04-12T10:21:54.111Z,13.78
2023-04-12T10:24:39.231Z,14.00
2023-04-12T10:27:27.151Z,13.85
2023-04-12T10:30:41.936Z,14.05
2023-04-12T10:33:30.438Z,13.87
2023-04-12T10:36:19.612Z,13.88
2023-04-12T10:39:10.457Z,13.93
2023-04-12T10:42:29.121Z,13.99
2023-04-12T10:45:23.872Z,14.28
2023-04-12T10:48:38.801Z,14.45
2023-04-12T10:51:25.753Z,14.46
2023-04-12T10:54:16.362Z,14.40
2023-04-12T10:57:04.430Z,14.60
2023-04-12T10:59:57.045Z,14.62
2023-04-12T11:03:07.700Z,14.75
2023-04-12T11:06:16.181Z,14.66
2023-04-12T11:09:38.842Z,14.39
2023-04-12T11:12:29.175Z,14.46
2023-04-12T11:15:15.017Z,14.53
2023-04-12T11:18:06.926Z,14.45
2023-04-12T11:20:52.783Z,14.52
2023-04-12T11:23:39.599Z,14.43
2023-04-12T11:26:25.584Z,14.47
2023-04-12T11:29:12.619Z,14.42
2023-04-12T11:31:58.530Z,14.64
2023-04-12T11:34:46.133Z,14.57
2023-04-12T11:37:31.492Z,14.59
2023-04-12T11:40:17.879Z,14.48
2023-04-12T11:43:03.233Z,14.37
2023-04-12T11:45:48.539Z,14.30
2023-04-12T11:48:33.928Z,14.37
2023-04-12T11:51:29.861Z,14.50
2023-04-12T11:54:17.056Z,14.45
2023-04-12T11:57:05.072Z,14.50
2023-04-12T11:59:52.304Z,14.67
2023-04-12T12:02:43.562Z,14.88
2023-04-12T12:05:37.736Z,14.93
2023-04-12T12:08:24.376Z,15.03
2023-04-12T12:11:10.241Z,15.09
2023-04-12T12:13:56.846Z,15.02
2023-04-12T12:16:42.162Z,15.12
2023-04-12T12:19:33.540Z,15.20
2023-04-12T12:22:22.044Z,15.26
2023-04-12T12:25:07.828Z,15.28
2023-04-12T12:27:57.375Z,15.31
2023-04-12T12:30:42.815Z,15.37
2023-04-12T12:33:46.694Z,15.46
2023-04-12T12:36:34.119Z,15.58
2023-04-12T12:39:19.510Z,15.59
2023-04-12T12:42:06.345Z,15.52
2023-04-12T12:44:51.641Z,15.60
2023-04-12T12:47:46.271Z,15.38
2023-04-12T12:50:34.101Z,15.58
2023-04-12T12:53:19.551Z,15.51
2023-04-12T12:56:05.508Z,15.48
2023-04-12T12:58:53.372Z,15.43
2023-04-12T13:01:38.866Z,15.32
2023-04-12T13:04:24.764Z,15.41
2023-04-12T13:07:10.579Z,15.49
2023-04-12T13:09:56.385Z,15.58
2023-04-12T13:12:41.781Z,15.79
2023-04-12T13:15:26.956Z,16.03
2023-04-12T13:18:15.305Z,16.17
2023-04-12T13:21:01.070Z,16.50
2023-04-12T13:23:46.311Z,16.22
2023-04-12T13:26:31.873Z,16.04
2023-04-12T13:29:17.598Z,15.99
2023-04-12T13:32:03.645Z,15.73
2023-04-12T13:34:49.023Z,15.65
2023-04-12T13:37:34.362Z,15.60
2023-04-12T13:40:19.772Z,15.63
2023-04-12T13:43:06.962Z,15.79
2023-04-12T13:45:52.782Z,15.91
2023-04-12T13:48:38.504Z,16.01
2023-04-12T13:51:23.835Z,15.93
2023-04-12T13:54:09.002Z,15.78
2023-04-12T13:56:54.448Z,15.73
2023-04-12T13:59:40.102Z,15.61
2023-04-12T14:02:25.541Z,15.50
2023-04-12T14:05:11.782Z,15.37
2023-04-12T14:07:57.132Z,15.37
2023-04-12T14:10:42.524Z,15.37
2023-04-12T14:13:27.745Z,15.22
2023-04-12T14:16:13.406Z,15.10
2023-04-12T14:18:58.925Z,14.99
2023-04-12T14:21:44.443Z,14.90
2023-04-12T14:24:29.688Z,14.88
2023-04-12T14:27:17.382Z,14.82
2023-04-12T14:30:04.967Z,14.77
2023-04-12T14:32:50.094Z,14.72
2023-04-12T14:35:35.763Z,14.69
2023-04-12T14:38:20.905Z,14.64
2023-04-12T14:41:09.674Z,14.53
2023-04-12T14:43:55.446Z,14.44
2023-04-12T14:46:41.645Z,14.42
2023-04-12T14:49:28.413Z,14.38
2023-04-12T14:52:14.628Z,14.34
2023-04-12T14:55:01.288Z,14.28
2023-04-12T14:57:46.631Z,14.23
2023-04-12T15:00:33.992Z,14.23
2023-04-12T15:03:20.939Z,14.24
2023-04-12T15:06:06.936Z,14.23
2023-04-12T15:08:54.916Z,14.18
2023-04-12T15:11:46.048Z,14.02
2023-04-12T15:14:31.352Z,13.88
2023-04-12T15:17:17.002Z,13.84
2023-04-12T15:20:09.068Z,13.80
2023-04-12T15:22:54.314Z,13.62
2023-04-12T15:25:39.721Z,13.49
2023-04-12T15:28:25.249Z,13.31
2023-04-12T15:31:11.768Z,13.17
2023-04-12T15:33:57.930Z,12.97
2023-04-12T15:36:44.298Z,12.88
2023-04-12T15:39:29.508Z,12.82
2023-04-12T15:42:15.764Z,12.74
2023-04-12T15:45:01.989Z,12.65
2023-04-12T15:47:47.276Z,12.59
2023-04-12T15:50:32.712Z,12.62
2023-04-12T15:53:26.434Z,12.66
2023-04-12T15:56:14.382Z,12.68
2023-04-12T15:59:03.037Z,12.69
2023-04-12T16:01:52.191Z,12.70
2023-04-12T16:04:37.963Z,12.60
2023-04-12T16:07:23.549Z,12.55
2023-04-12T16:10:09.368Z,12.49
2023-04-12T16:12:56.365Z,12.42
2023-04-12T16:15:41.939Z,12.40
2023-04-12T16:18:30.833Z,12.43
2023-04-12T16:21:20.141Z,12.48
2023-04-12T16:24:06.051Z,12.58
2023-04-12T16:26:51.995Z,12.61
2023-04-12T16:29:37.698Z,12.62
2023-04-12T16:32:22.885Z,12.60
2023-04-12T16:35:08.877Z,12.55
2023-04-12T16:37:54.629Z,12.43
2023-04-12T16:40:40.039Z,12.33
2023-04-12T16:43:25.763Z,12.27
2023-04-12T16:46:11.280Z,12.19
2023-04-12T16:48:59.251Z,12.14
2023-04-12T16:51:44.704Z,12.07
2023-04-12T16:54:29.923Z,12.05
2023-04-12T16:57:15.452Z,12.05
2023-04-12T17:00:01.044Z,12.02
2023-04-12T17:02:50.788Z,11.98
2023-04-12T17:05:36.351Z,11.96
2023-04-12T17:08:22.516Z,11.90
2023-04-12T17:11:08.131Z,11.88
2023-04-12T17:13:53.543Z,11.82
2023-04-12T17:16:39.000Z,11.78
2023-04-12T17:19:24.474Z,11.76
2023-04-12T17:22:10.136Z,11.74
2023-04-12T17:24:55.868Z,11.71
2023-04-12T17:27:44.211Z,11.72
2023-04-12T17:30:33.501Z,11.74
2023-04-12T17:33:18.944Z,11.71
2023-04-12T17:36:04.680Z,11.72
2023-04-12T17:38:50.052Z,11.74
2023-04-12T17:41:35.607Z,11.72
2023-04-12T17:44:21.192Z,11.66
2023-04-12T17:47:06.576Z,11.64
2023-04-12T17:49:51.588Z,11.64
2023-04-12T17:52:37.935Z,11.61
2023-04-12T17:55:24.118Z,11.56
2023-04-12T17:58:09.564Z,11.57
2023-04-12T18:00:54.695Z,11.59
2023-04-12T18:03:40.672Z,11.59
2023-04-12T18:06:26.427Z,11.58
2023-04-12T18:09:12.690Z,11.59
2023-04-12T18:12:01.104Z,11.60
2023-04-12T18:14:49.014Z,11.58
2023-04-12T18:17:34.481Z,11.56
2023-04-12T18:20:20.384Z,11.55
2023-04-12T18:23:05.914Z,11.54
2023-04-12T18:25:51.140Z,11.55
2023-04-12T18:28:37.531Z,11.55
2023-04-12T18:31:24.821Z,11.53
2023-04-12T18:34:10.277Z,11.48
2023-04-12T18:36:55.717Z,11.46
2023-04-12T18:39:42.683Z,11.47
2023-04-12T18:42:28.101Z,11.47
2023-04-12T18:45:14.337Z,11.47
2023-04-12T18:48:00.412Z,11.47
2023-04-12T18:50:47.298Z,11.50
2023-04-12T18:53:33.953Z,11.52
2023-04-12T18:56:24.352Z,11.48
2023-04-12T18:59:15.815Z,11.47
2023-04-12T19:02:01.172Z,11.45
2023-04-12T19:04:46.969Z,11.45
2023-04-12T19:07:32.032Z,11.43
2023-04-12T19:10:17.746Z,11.42
2023-04-12T19:13:03.030Z,11.41
2023-04-12T19:15:48.291Z,11.39
2023-04-12T19:18:33.871Z,11.34
2023-04-12T19:21:19.192Z,11.31
2023-04-12T19:24:04.794Z,11.30
2023-04-12T19:26:50.405Z,11.27
2023-04-12T19:29:35.583Z,11.23
2023-04-12T19:32:21.955Z,11.21
2023-04-12T19:35:09.757Z,11.20
2023-04-12T19:37:56.956Z,11.18
2023-04-12T19:40:48.295Z,11.17
2023-04-12T19:43:33.471Z,11.18
2023-04-12T19:46:18.724Z,11.14
2023-04-12T19:49:04.340Z,11.14
2023-04-12T19:51:52.120Z,11.09
2023-04-12T19:54:37.423Z,11.05
2023-04-12T19:57:24.196Z,10.99
2023-04-12T20:00:19.499Z,10.82
2023-04-12T20:03:14.256Z,10.75
2023-04-12T20:06:03.559Z,10.73
2023-04-12T20:08:49.191Z,10.73
2023-04-12T20:11:34.463Z,10.73
2023-04-12T20:14:20.064Z,10.69
2023-04-12T20:17:06.138Z,10.67
2023-04-12T20:19:54.229Z,10.62
2023-04-12T20:22:42.958Z,10.62
2023-04-12T20:25:28.979Z,10.64
2023-04-12T20:28:14.751Z,10.66
2023-04-12T20:31:00.308Z,10.65
2023-04-12T20:33:45.406Z,10.62
2023-04-12T20:36:31.257Z,10.58
2023-04-12T20:39:16.483Z,10.60
2023-04-12T20:42:01.796Z,10.61
2023-04-12T20:44:48.283Z,10.58
2023-04-12T20:47:34.678Z,10.64
2023-04-12T20:50:22.443Z,10.68
2023-04-12T20:53:09.699Z,10.68
2023-04-12T20:55:55.504Z,10.68
2023-04-12T20:58:41.781Z,10.65
2023-04-12T21:01:27.341Z,10.65
2023-04-12T21:04:15.573Z,10.64
2023-04-12T21:07:02.763Z,10.63
2023-04-12T21:09:48.324Z,10.56
2023-04-12T21:12:34.759Z,10.47
2023-04-12T21:15:22.130Z,10.42
2023-04-12T21:18:08.049Z,10.38
2023-04-12T21:20:58.060Z,10.34
2023-04-12T21:23:43.745Z,10.26
2023-04-12T21:26:33.106Z,10.24
2023-04-12T21:29:19.665Z,10.23
2023-04-12T21:32:05.723Z,10.21
2023-04-12T21:34:51.218Z,10.16
2023-04-12T21:37:40.504Z,10.09
2023-04-12T21:40:25.717Z,10.05
2023-04-12T21:43:10.907Z,10.02
2023-04-12T21:45:56.409Z,10.01
2023-04-12T21:48:41.835Z,9.98
2023-04-12T21:51:28.108Z,9.98
2023-04-12T21:54:13.844Z,9.94
2023-04-12T21:56:59.635Z,9.94
2023-04-12T21:59:45.332Z,9.94
2023-04-12T22:02:31.145Z,9.92
2023-04-12T22:05:16.841Z,9.94
2023-04-12T22:08:02.309Z,9.92
2023-04-12T22:10:48.892Z,9.93
2023-04-12T22:13:34.627Z,9.95
2023-04-12T22:16:21.941Z,9.99
2023-04-12T22:19:07.499Z,10.02
2023-04-12T22:21:55.116Z,10.03
2023-04-12T22:24:40.786Z,10.03
2023-04-12T22:27:26.690Z,10.07
2023-04-12T22:30:12.851Z,10.07
2023-04-12T22:32:59.812Z,10.09
2023-04-12T22:35:45.090Z,10.07
2023-04-12T22:38:30.876Z,10.05
2023-04-12T22:41:17.059Z,10.04
2023-04-12T22:44:02.595Z,10.04
2023-04-12T22:46:48.646Z,9.99
2023-04-12T22:49:44.564Z,9.97
2023-04-12T22:52:33.459Z,9.93
2023-04-12T22:55:18.618Z,9.92
2023-04-12T22:58:06.891Z,9.89
2023-04-12T23:00:52.003Z,9.84
2023-04-12T23:03:38.067Z,9.84
2023-04-12T23:06:24.056Z,9.83
2023-04-12T23:09:10.966Z,9.83
2023-04-12T23:11:56.373Z,9.86
2023-04-12T23:14:41.708Z,9.89
2023-04-12T23:17:29.228Z,9.92
2023-04-12T23:20:14.818Z,9.96
2023-04-12T23:23:00.120Z,9.94
2023-04-12T23:25:48.512Z,9.88
2023-04-12T23:28:40.701Z,9.82
2023-04-12T23:31:28.762Z,9.78
2023-04-12T23:34:13.757Z,9.75
2023-04-12T23:36:59.828Z,9.75
2023-04-12T23:39:48.057Z,9.77
2023-04-12T23:42:34.689Z,9.75
2023-04-12T23:45:19.940Z,9.75
2023-04-12T23:48:08.116Z,9.74
2023-04-12T23:50:54.111Z,9.76
2023-04-12T23:53:39.299Z,9.75
2023-04-12T23:56:24.698Z,9.77
2023-04-12T23:59:10.064Z,9.79
